Time;durP1;ratioP1;P1;durP2;ratioP2;P2;SDS_P1;SDS_P2;PMS_P1;PMS_P2;Temp;Humidity;BMP_temperature;BMP_pressure;BME280_temperature;BME280_humidity;BME280_pressure;Samples;Min_cycle;Max_cycle;Signal;HPM_P1;HPM_P2
2022/07/05 00:00:00;;;;;;;4.38;2.90;;;;;;;22.77;38.98;95577.63;5005913;28;20026;-82
2022/07/05 00:02:25;;;;;;;4.93;2.70;;;;;;;22.78;39.12;95571.06;4988086;28;20022;-82
2022/07/05 00:04:51;;;;;;;6.07;3.22;;;;;;;22.72;38.89;95569.34;4989690;28;20547;-82
2022/07/05 00:07:19;;;;;;;4.90;2.67;;;;;;;22.75;39.37;95568.84;5005065;28;20092;-82
2022/07/05 00:09:46;;;;;;;6.82;2.75;;;;;;;22.73;39.69;95581.94;5005730;28;20030;-82
2022/07/05 00:12:14;;;;;;;4.55;2.60;;;;;;;22.78;39.54;95571.06;5007187;28;20025;-82
2022/07/05 00:14:40;;;;;;;4.82;2.45;;;;;;;22.80;39.73;95573.53;4989124;28;20084;-82
2022/07/05 00:17:05;;;;;;;3.53;2.38;;;;;;;22.76;40.17;95573.25;4989631;28;20068;-82
2022/07/05 00:19:34;;;;;;;4.13;2.50;;;;;;;22.74;40.39;95569.09;5004898;28;20057;-82
2022/07/05 00:21:59;;;;;;;5.25;2.65;;;;;;;22.73;40.48;95565.56;5006232;28;20025;-82
2022/07/05 00:24:25;;;;;;;4.93;2.38;;;;;;;22.76;40.75;95570.50;5004872;28;20034;-82
2022/07/05 00:26:51;;;;;;;4.45;2.40;;;;;;;22.75;40.22;95571.56;5005787;28;20026;-82
2022/07/05 00:29:16;;;;;;;5.20;2.67;;;;;;;22.80;40.41;95566.19;5005274;28;20319;-82
2022/07/05 00:31:42;;;;;;;5.88;2.50;;;;;;;22.79;40.42;95559.06;5005182;28;20592;-82
2022/07/05 00:34:08;;;;;;;7.13;2.45;;;;;;;22.89;40.14;95557.56;4989240;28;20048;-82
2022/07/05 00:36:33;;;;;;;7.93;2.42;;;;;;;22.94;40.48;95550.22;4988653;28;20447;-82
2022/07/05 00:39:00;;;;;;;3.95;2.40;;;;;;;22.81;40.97;95547.88;4989423;28;20062;-82
2022/07/05 00:41:25;;;;;;;4.60;2.17;;;;;;;22.84;40.68;95553.66;5005728;28;20030;-82
2022/07/05 00:43:55;;;;;;;4.00;2.28;;;;;;;22.77;40.84;95549.44;5006133;28;20022;-81
2022/07/05 00:46:21;;;;;;;4.78;2.50;;;;;;;22.70;40.96;95557.81;5005202;28;20045;-81
2022/07/05 00:48:46;;;;;;;5.05;2.75;;;;;;;22.72;41.68;95553.78;5006821;28;20034;-81
2022/07/05 00:51:12;;;;;;;5.70;2.55;;;;;;;22.67;42.10;95556.44;4988949;28;20037;-82
2022/07/05 00:53:37;;;;;;;5.50;2.90;;;;;;;22.63;42.46;95560.75;4988199;28;20393;-81
2022/07/05 00:56:04;;;;;;;4.43;3.10;;;;;;;22.58;42.97;95564.22;5007380;28;20022;-82
2022/07/05 00:58:29;;;;;;;4.50;3.25;;;;;;;22.64;44.33;95567.03;4988269;28;20034;-81
2022/07/05 01:00:55;;;;;;;7.40;3.92;;;;;;;22.68;46.28;95573.66;5006136;28;20104;-81
2022/07/05 01:03:20;;;;;;;8.20;3.95;;;;;;;22.70;45.62;95557.81;5005756;28;20030;-81
2022/07/05 01:05:46;;;;;;;6.35;3.40;;;;;;;22.67;45.65;95569.25;5006430;28;20029;-81
2022/07/05 01:08:11;;;;;;;5.68;4.10;;;;;;;22.62;45.96;95564.56;5006049;28;20413;-81
2022/07/05 01:10:36;;;;;;;8.05;5.07;;;;;;;22.59;46.50;95571.34;4972335;28;20033;-82
2022/07/05 01:13:02;;;;;;;6.45;3.75;;;;;;;22.62;45.84;95580.16;4989151;28;20037;-82
2022/07/05 01:15:27;;;;;;;6.18;4.28;;;;;;;22.59;46.25;95575.97;5004773;28;20543;-81
2022/07/05 01:17:53;;;;;;;7.53;4.32;;;;;;;22.51;47.13;95573.63;4989748;28;20456;-82
2022/07/05 01:20:18;;;;;;;5.75;4.22;;;;;;;22.46;47.15;95575.22;5004164;28;20079;-82
2022/07/05 01:22:57;;;;;;;8.57;4.55;;;;;;;22.40;47.53;95567.19;5007649;28;20092;-81
2022/07/05 01:25:23;;;;;;;6.53;4.70;;;;;;;22.38;47.95;95575.66;5007202;28;20037;-82
2022/07/05 01:27:49;;;;;;;4.85;4.35;;;;;;;22.34;48.33;95579.97;5009144;28;20076;-82
2022/07/05 01:30:15;;;;;;;6.50;4.78;;;;;;;22.27;48.99;95573.81;4992864;28;20026;-82
2022/07/05 01:32:41;;;;;;;7.53;5.07;;;;;;;22.31;49.41;95580.47;5009571;28;20026;-82
2022/07/05 01:35:07;;;;;;;8.90;4.90;;;;;;;22.28;49.41;95573.56;5025680;28;20022;-81
2022/07/05 01:37:33;;;;;;;6.43;4.68;;;;;;;22.28;49.00;95562.66;5008495;28;20068;-82
2022/07/05 01:39:58;;;;;;;7.43;4.78;;;;;;;22.25;49.19;95570.53;4992771;28;20034;-81
2022/07/05 01:42:24;;;;;;;8.25;4.65;;;;;;;22.23;48.63;95570.78;5007264;28;20030;-81
2022/07/05 01:44:49;;;;;;;7.40;4.28;;;;;;;22.19;49.31;95564.97;5008676;28;20080;-82
2022/07/05 01:47:15;;;;;;;5.00;4.50;;;;;;;22.24;48.95;95572.44;5007938;28;20052;-82
2022/07/05 01:49:41;;;;;;;6.35;4.45;;;;;;;22.21;48.98;95570.19;5007874;28;20022;-82
2022/07/05 01:52:09;;;;;;;7.50;4.38;;;;;;;22.16;48.75;95572.84;5008438;28;20113;-82
2022/07/05 01:54:34;;;;;;;8.95;5.10;;;;;;;22.10;48.81;95574.66;5007332;28;20052;-81
2022/07/05 01:57:03;;;;;;;5.03;4.43;;;;;;;22.03;48.77;95572.09;5008772;28;20022;-80
2022/07/05 01:59:29;;;;;;;5.57;4.25;;;;;;;22.06;49.24;95576.22;4990842;28;20061;-81
2022/07/05 02:01:54;;;;;;;7.70;4.60;;;;;;;22.05;50.08;95566.38;5008833;28;20104;-82
2022/07/05 02:04:20;;;;;;;5.97;4.65;;;;;;;21.98;50.66;95563.81;5007665;28;20026;-82
2022/07/05 02:06:45;;;;;;;7.00;5.03;;;;;;;21.94;50.18;95570.84;5008322;28;20472;-82
2022/07/05 02:09:11;;;;;;;7.40;4.93;;;;;;;21.85;50.24;95573.97;5008329;28;20488;-82
2022/07/05 02:11:36;;;;;;;9.25;4.93;;;;;;;21.83;50.72;95576.09;5008426;28;20088;-82
2022/07/05 02:14:02;;;;;;;8.13;4.55;;;;;;;21.75;51.01;95576.47;5008464;28;20088;-80
2022/07/05 02:16:27;;;;;;;8.60;4.82;;;;;;;21.71;50.01;95578.03;5008001;28;20036;-81
2022/07/05 02:18:53;;;;;;;7.78;5.32;;;;;;;21.68;51.23;95582.06;4992313;28;20025;-81
2022/07/05 02:21:18;;;;;;;12.20;5.15;;;;;;;21.61;51.53;95584.97;5008393;28;20050;-82
2022/07/05 02:23:44;;;;;;;6.32;4.50;;;;;;;21.47;52.01;95578.16;5008080;28;20029;-81
2022/07/05 02:26:09;;;;;;;7.03;5.22;;;;;;;21.46;51.99;95587.38;4991205;28;20036;-81
2022/07/05 02:28:35;;;;;;;10.73;5.60;;;;;;;21.48;51.58;95577.91;5008470;28;20108;-81
2022/07/05 02:31:00;;;;;;;6.43;4.85;;;;;;;21.46;51.64;95576.47;4991559;28;20033;-81
2022/07/05 02:33:26;;;;;;;8.57;5.05;;;;;;;21.42;51.46;95588.94;4990478;28;20026;-82
2022/07/05 02:35:51;;;;;;;9.40;5.20;;;;;;;21.39;51.29;95582.09;4974565;28;20030;-81
2022/07/05 02:38:16;;;;;;;12.43;5.38;;;;;;;21.34;51.25;95579.25;4990277;28;20046;-81
2022/07/05 02:40:42;;;;;;;6.63;4.85;;;;;;;21.38;51.76;95579.59;5009384;28;20029;-83
2022/07/05 02:43:07;;;;;;;6.80;4.57;;;;;;;21.36;51.67;95588.03;4990381;28;20033;-81
2022/07/05 02:45:33;;;;;;;6.93;4.72;;;;;;;21.35;50.94;95592.66;5007406;28;20052;-81
2022/07/05 02:47:58;;;;;;;5.88;4.60;;;;;;;21.28;51.06;95586.50;5008698;28;20316;-81
2022/07/05 02:50:24;;;;;;;6.57;4.82;;;;;;;21.21;51.10;95588.53;5007164;28;20033;-81
2022/07/05 02:52:49;;;;;;;8.13;4.50;;;;;;;21.18;51.00;95595.31;5007632;28;20472;-82
2022/07/05 02:55:15;;;;;;;7.53;4.88;;;;;;;21.14;51.06;95596.00;5006783;28;20543;-82
2022/07/05 02:57:40;;;;;;;8.38;4.82;;;;;;;21.02;52.00;95601.50;5009095;28;20506;-80
2022/07/05 03:00:06;;;;;;;6.65;4.53;;;;;;;21.05;51.36;95599.13;5006273;28;20029;-81
2022/07/05 03:02:31;;;;;;;8.30;4.68;;;;;;;20.95;51.67;95599.75;5009009;28;20028;-82
2022/07/05 03:04:57;;;;;;;9.77;4.40;;;;;;;20.92;51.49;95600.22;4989784;28;20497;-82
2022/07/05 03:07:22;;;;;;;7.43;4.80;;;;;;;20.91;51.59;95614.06;5008403;28;20022;-81
2022/07/05 03:09:48;;;;;;;8.35;4.55;;;;;;;20.93;51.50;95609.19;5008137;28;20052;-82
2022/07/05 03:12:13;;;;;;;5.57;4.47;;;;;;;20.85;51.71;95605.75;4989899;28;20041;-81
2022/07/05 03:14:38;;;;;;;6.97;4.25;;;;;;;20.86;51.59;95601.94;4974279;28;20092;-82
2022/07/05 03:17:04;;;;;;;5.43;4.28;;;;;;;20.88;51.97;95594.38;5006206;28;20021;-81
2022/07/05 03:19:29;;;;;;;7.90;4.57;;;;;;;20.93;51.91;95601.03;5008726;28;20501;-82
2022/07/05 03:21:55;;;;;;;10.60;4.57;;;;;;;20.92;51.86;95593.94;5005535;28;20014;-82
2022/07/05 03:24:20;;;;;;;15.07;5.05;;;;;;;20.90;52.13;95593.28;5007267;28;20045;-81
2022/07/05 03:26:45;;;;;;;6.38;4.80;;;;;;;20.80;52.11;95605.63;4989753;28;20041;-82
2022/07/05 03:29:11;;;;;;;7.80;5.10;;;;;;;20.73;52.54;95602.22;5006396;28;20030;-81
2022/07/05 03:31:36;;;;;;;7.95;4.78;;;;;;;20.71;51.75;95605.19;5006465;28;20097;-81
2022/07/05 03:34:02;;;;;;;6.13;4.43;;;;;;;20.75;51.37;95597.34;4989564;28;20775;-80
2022/07/05 03:36:27;;;;;;;7.38;4.75;;;;;;;20.78;51.89;95596.84;5007288;28;20030;-81
2022/07/05 03:38:53;;;;;;;8.23;4.90;;;;;;;20.78;52.09;95594.13;4989114;28;20042;-81
2022/07/05 03:41:18;;;;;;;8.82;4.70;;;;;;;20.82;52.15;95591.78;5007201;28;20439;-81
2022/07/05 03:43:44;;;;;;;6.35;4.50;;;;;;;20.80;50.88;95589.28;4989304;28;20107;-81
2022/07/05 03:46:09;;;;;;;7.05;4.50;;;;;;;20.84;51.06;95589.63;5008105;28;20029;-80
2022/07/05 03:48:35;;;;;;;8.38;4.57;;;;;;;20.88;51.36;95588.91;5005811;28;20034;-82
2022/07/05 03:51:00;;;;;;;5.72;4.32;;;;;;;20.91;51.02;95593.06;4989670;28;20036;-81
2022/07/05 03:53:25;;;;;;;11.35;4.82;;;;;;;20.91;50.83;95587.59;4990110;28;20411;-83
2022/07/05 03:55:51;;;;;;;7.88;4.93;;;;;;;20.92;51.56;95589.31;5006846;28;20504;-81
2022/07/05 03:58:16;;;;;;;8.00;4.93;;;;;;;20.96;50.90;95589.63;5009809;28;20026;-81
2022/07/05 04:00:42;;;;;;;6.85;4.45;;;;;;;20.95;50.42;95586.09;4996134;28;20026;-80
2022/07/05 04:03:07;;;;;;;8.48;4.60;;;;;;;20.97;50.56;95597.56;5020460;28;20034;-81
2022/07/05 04:05:33;;;;;;;13.07;4.85;;;;;;;21.01;51.41;95597.13;5006324;28;20037;-82
2022/07/05 04:07:58;;;;;;;7.88;4.65;;;;;;;21.00;50.74;95588.13;5010554;28;20025;-82
2022/07/05 04:10:24;;;;;;;8.82;5.40;;;;;;;21.01;50.81;95595.22;5010953;28;20055;-80
2022/07/05 04:12:49;;;;;;;9.73;5.57;;;;;;;21.05;51.64;95593.69;4993576;28;20511;-81
2022/07/05 04:15:15;;;;;;;13.02;5.60;;;;;;;21.00;51.67;95590.84;4993706;28;20037;-81
2022/07/05 04:17:53;;;;;;;7.53;4.50;;;;;;;21.05;50.60;95585.50;5007064;28;20103;-81
2022/07/05 04:20:20;;;;;;;9.35;5.05;;;;;;;21.17;50.91;95593.63;5006306;28;20018;-81
2022/07/05 04:22:46;;;;;;;5.57;4.85;;;;;;;21.26;51.31;95596.84;4989322;28;20026;-81
2022/07/05 04:25:17;;;;;;;10.25;4.75;;;;;;;21.32;51.14;95595.88;5005785;28;20049;-82
2022/07/05 04:27:49;;;;;;;7.82;4.72;;;;;;;21.43;50.58;95596.88;5013566;28;20048;-83
2022/07/05 04:30:15;;;;;;;;;;;;;;;21.52;50.63;95586.44;5006765;28;20030;-81
2022/07/05 04:32:41;;;;;;;7.45;4.70;;;;;;;21.61;50.84;95587.69;5006237;28;19920;-82
2022/07/05 04:35:07;;;;;;;11.23;4.90;;;;;;;21.68;51.33;95586.72;5004477;28;20033;-82
2022/07/05 04:37:32;;;;;;;12.18;5.22;;;;;;;21.72;52.09;95585.16;5006019;28;20038;-81
2022/07/05 04:39:58;;;;;;;8.23;4.90;;;;;;;21.78;51.71;95586.94;5004674;28;20460;-82
2022/07/05 04:42:23;;;;;;;7.60;4.70;;;;;;;21.92;50.49;95590.19;4989297;28;20022;-82
2022/07/05 04:44:48;;;;;;;7.30;4.53;;;;;;;22.04;50.45;95579.19;5005080;28;20022;-81
2022/07/05 04:47:14;;;;;;;8.45;5.20;;;;;;;22.10;50.91;95580.94;5004833;28;20025;-82
2022/07/05 04:49:40;;;;;;;7.63;4.65;;;;;;;22.24;50.10;95575.16;5004956;28;20121;-81
2022/07/05 04:52:05;;;;;;;6.40;4.78;;;;;;;22.35;50.19;95593.38;5004398;28;20475;-82
2022/07/05 04:54:31;;;;;;;8.88;4.97;;;;;;;22.35;50.36;95596.09;4989363;28;20569;-82
2022/07/05 04:56:56;;;;;;;10.63;4.22;;;;;;;22.46;49.35;95593.53;5004383;28;20029;-82
2022/07/05 04:59:22;;;;;;;9.27;4.47;;;;;;;22.53;49.13;95582.44;5006052;28;20056;-82
2022/07/05 05:01:47;;;;;;;9.77;4.10;;;;;;;22.66;48.93;95590.31;5008969;28;20026;-82
2022/07/05 05:04:12;;;;;;;5.50;4.10;;;;;;;22.81;49.95;95599.81;5009488;28;20070;-82
2022/07/05 05:06:38;;;;;;;4.70;4.18;;;;;;;22.94;49.39;95602.19;5010204;28;20026;-83
2022/07/05 05:09:03;;;;;;;7.72;5.15;;;;;;;23.05;48.42;95599.59;5008769;28;20111;-82
2022/07/05 05:11:29;;;;;;;5.55;4.00;;;;;;;23.17;47.45;95596.75;5008752;28;20033;-81
2022/07/05 05:13:54;;;;;;;6.05;3.75;;;;;;;23.24;47.09;95599.28;5009568;28;20034;-83
2022/07/05 05:16:20;;;;;;;8.60;4.32;;;;;;;23.38;46.83;95600.56;5010267;28;20036;-82
2022/07/05 05:18:45;;;;;;;5.45;4.15;;;;;;;23.50;46.26;95595.00;5007872;28;20022;-81
2022/07/05 05:21:11;;;;;;;5.22;3.78;;;;;;;23.63;46.09;95598.41;5009408;28;20084;-82
2022/07/05 05:23:36;;;;;;;5.78;3.67;;;;;;;23.74;45.93;95591.97;5007991;28;20022;-83
2022/07/05 05:26:01;;;;;;;8.35;3.60;;;;;;;23.85;45.50;95592.91;4992254;28;20472;-84
2022/07/05 05:28:27;;;;;;;5.22;3.53;;;;;;;23.98;44.85;95590.81;5008774;28;20498;-84
2022/07/05 05:30:52;;;;;;;5.72;3.45;;;;;;;24.06;43.22;95593.94;4975577;28;20034;-87
2022/07/05 05:33:18;;;;;;;6.35;3.10;;;;;;;24.17;41.31;95594.88;4975841;28;20030;-83
2022/07/05 05:35:43;;;;;;;7.57;3.30;;;;;;;24.27;41.33;95591.41;5008954;28;20022;-82
2022/07/05 05:38:09;;;;;;;5.57;3.00;;;;;;;24.36;40.75;95586.25;5010210;28;20061;-83
2022/07/05 05:40:36;;;;;;;6.15;2.95;;;;;;;24.40;39.05;95586.56;5007634;28;20775;-83
2022/07/05 05:43:01;;;;;;;10.65;3.40;;;;;;;24.32;39.97;95585.13;5010260;28;20679;-83
2022/07/05 05:45:27;;;;;;;4.95;3.05;;;;;;;24.25;39.24;95582.63;4991606;28;20026;-85
2022/07/05 05:47:54;;;;;;;5.78;2.58;;;;;;;24.22;40.46;95588.63;4975910;28;20493;-85
2022/07/05 05:50:20;;;;;;;4.65;2.92;;;;;;;24.19;40.01;95584.50;5008265;28;20435;-83
2022/07/05 05:52:46;;;;;;;5.00;2.80;;;;;;;24.31;40.97;95592.53;5007480;28;20052;-82
2022/07/05 05:55:11;;;;;;;8.80;3.42;;;;;;;24.37;40.81;95592.56;5008394;28;20037;-82
2022/07/05 05:57:37;;;;;;;8.88;3.15;;;;;;;24.52;40.80;95587.19;5006941;28;20037;-82
2022/07/05 06:00:04;;;;;;;4.80;3.28;;;;;;;24.67;40.37;95594.72;4992475;28;20304;-83
2022/07/05 06:02:29;;;;;;;7.38;3.20;;;;;;;24.79;39.26;95599.19;5008846;28;20026;-82
2022/07/05 06:04:55;;;;;;;7.53;3.10;;;;;;;24.64;38.39;95600.75;5009415;28;20041;-83
2022/07/05 06:07:20;;;;;;;9.30;2.80;;;;;;;24.49;38.75;95598.69;4975391;28;20029;-82
2022/07/05 06:09:46;;;;;;;11.35;3.05;;;;;;;24.42;39.08;95592.63;5006981;28;20389;-82
2022/07/05 06:12:11;;;;;;;11.63;3.22;;;;;;;24.59;39.64;95603.44;5009369;28;20030;-84
2022/07/05 06:14:37;;;;;;;8.93;3.03;;;;;;;24.77;40.05;95604.94;5006947;28;20103;-82
2022/07/05 06:17:02;;;;;;;12.60;3.72;;;;;;;24.93;39.06;95605.06;5008411;28;20026;-85
2022/07/05 06:19:28;;;;;;;8.40;3.00;;;;;;;24.94;39.61;95603.97;5006867;28;20184;-83
2022/07/05 06:21:53;;;;;;;6.05;2.78;;;;;;;25.09;39.65;95596.91;5008255;28;20022;-84
2022/07/05 06:24:18;;;;;;;3.45;2.90;;;;;;;25.16;38.83;95600.25;5007273;28;20037;-83
2022/07/05 06:26:44;;;;;;;6.93;2.85;;;;;;;25.09;39.26;95596.91;5008684;28;20026;-83
2022/07/05 06:29:09;;;;;;;9.40;3.55;;;;;;;25.20;39.02;95601.38;4991144;28;20060;-83
2022/07/05 06:31:35;;;;;;;7.63;2.80;;;;;;;25.22;38.67;95604.66;4990274;28;20404;-84
2022/07/05 06:34:00;;;;;;;9.10;3.20;;;;;;;25.26;39.63;95604.97;5009303;28;20030;-84
2022/07/05 06:36:26;;;;;;;6.55;2.60;;;;;;;25.37;39.51;95601.19;5008004;28;20420;-83
2022/07/05 06:38:51;;;;;;;6.07;3.03;;;;;;;25.49;38.96;95589.97;5008971;28;20476;-85
2022/07/05 06:41:16;;;;;;;7.82;2.80;;;;;;;25.59;37.15;95580.09;4990376;28;20092;-84
2022/07/05 06:43:42;;;;;;;7.05;3.20;;;;;;;25.69;37.44;95585.66;5007525;28;20507;-83
2022/07/05 06:46:07;;;;;;;7.55;3.13;;;;;;;25.82;36.87;95586.25;5007069;28;20473;-83
2022/07/05 06:48:33;;;;;;;7.85;3.38;;;;;;;25.95;36.51;95582.16;5006903;28;20294;-83
2022/07/05 06:50:58;;;;;;;7.70;2.67;;;;;;;26.12;37.74;95587.38;5023411;28;20038;-83
2022/07/05 06:53:24;;;;;;;9.35;3.95;;;;;;;26.12;36.42;95576.38;5007688;28;20477;-83
2022/07/05 06:55:50;;;;;;;8.20;3.17;;;;;;;26.17;38.59;95581.88;5008472;28;20029;-83
2022/07/05 06:58:15;;;;;;;7.53;2.80;;;;;;;26.04;36.45;95575.84;5009971;28;20034;-82
2022/07/05 07:00:42;;;;;;;6.60;3.25;;;;;;;25.96;38.11;95576.38;5000426;28;20045;-83
2022/07/05 07:03:07;;;;;;;10.82;3.30;;;;;;;25.99;37.42;95567.59;4974122;28;20046;-83
2022/07/05 07:05:33;;;;;;;9.00;3.10;;;;;;;26.00;37.91;95569.25;5008437;28;20034;-83
2022/07/05 07:10:42;;;;;;;7.60;2.92;;;;;;;26.12;37.22;95579.97;5006488;28;20045;-83
2022/07/05 07:13:08;;;;;;;6.90;3.20;;;;;;;26.26;37.92;95584.94;4990471;28;20429;-83
2022/07/05 07:15:33;;;;;;;7.85;2.95;;;;;;;26.49;37.32;95574.50;4989472;28;20037;-83
2022/07/05 07:17:59;;;;;;;4.95;3.08;;;;;;;26.62;37.48;95575.84;4990460;28;20072;-84
2022/07/05 07:20:24;;;;;;;4.18;2.90;;;;;;;26.69;37.26;95578.34;5005964;28;20037;-84
2022/07/05 07:22:50;;;;;;;4.70;2.45;;;;;;;26.62;35.90;95575.84;4989207;28;20105;-82
2022/07/05 07:25:16;;;;;;;5.05;2.88;;;;;;;26.09;36.24;95582.44;4990067;28;20033;-83
2022/07/05 07:27:45;;;;;;;5.80;2.60;;;;;;;25.97;36.37;95580.75;4989966;28;20089;-83
2022/07/05 07:30:15;;;;;;;6.57;2.80;;;;;;;26.23;37.73;95572.53;5006378;28;20095;-82
2022/07/05 07:32:41;;;;;;;9.55;2.72;;;;;;;26.67;38.06;95570.34;5005586;28;20468;-83
2022/07/05 07:35:07;;;;;;;8.63;2.78;;;;;;;26.73;36.78;95568.44;4990435;28;20053;-83
2022/07/05 07:37:32;;;;;;;5.75;2.78;;;;;;;26.79;36.40;95570.06;5005406;28;20030;-83
2022/07/05 07:39:58;;;;;;;5.72;2.97;;;;;;;27.01;37.09;95568.94;5006182;28;20046;-84
2022/07/05 07:42:24;;;;;;;7.57;2.80;;;;;;;27.13;34.54;95565.91;5007088;28;20116;-84
2022/07/05 07:44:49;;;;;;;11.85;2.83;;;;;;;26.86;35.90;95567.03;5007593;28;20049;-86
2022/07/05 07:47:15;;;;;;;13.60;2.90;;;;;;;26.68;35.55;95566.53;5005922;28;20432;-83
2022/07/05 07:49:41;;;;;;;6.85;2.78;;;;;;;26.41;35.28;95568.47;5006890;28;20026;-86
2022/07/05 07:52:06;;;;;;;9.63;2.85;;;;;;;26.14;36.07;95565.94;5006380;28;20030;-84
2022/07/05 07:54:32;;;;;;;6.43;2.92;;;;;;;26.16;36.19;95566.50;5005434;28;20433;-84
2022/07/05 07:56:59;;;;;;;5.80;2.72;;;;;;;26.51;36.31;95562.13;5006337;28;20109;-83
2022/07/05 07:59:25;;;;;;;6.82;2.63;;;;;;;26.82;36.09;95557.69;4989449;28;20116;-85
2022/07/05 08:01:50;;;;;;;6.07;2.63;;;;;;;27.04;36.37;95568.38;5006091;28;20591;-84
2022/07/05 08:04:15;;;;;;;8.52;3.17;;;;;;;27.20;35.94;95560.91;5005690;28;20026;-84
2022/07/05 08:06:42;;;;;;;4.30;2.30;;;;;;;27.37;35.17;95566.09;5005388;28;20022;-84
2022/07/05 08:09:07;;;;;;;3.50;2.28;;;;;;;27.51;35.20;95563.53;5007055;28;20484;-84
2022/07/05 08:11:33;;;;;;;4.07;2.45;;;;;;;27.61;36.11;95556.31;5005081;28;20037;-85
2022/07/05 08:13:58;;;;;;;8.77;3.33;;;;;;;27.27;34.27;95558.69;5006153;28;20057;-84
2022/07/05 08:16:24;;;;;;;9.60;3.25;;;;;;;27.06;33.90;95562.59;5004588;28;20104;-85
2022/07/05 08:21:39;;;;;;;7.40;2.50;;;;;;;26.65;34.54;95559.63;5005936;28;20543;-83
2022/07/05 08:24:06;;;;;;;7.70;2.92;;;;;;;26.74;35.23;95559.91;4989819;28;20028;-83
2022/07/05 08:26:32;;;;;;;5.13;2.33;;;;;;;27.02;35.66;95543.91;4989630;28;20030;-85
2022/07/05 08:29:01;;;;;;;7.72;2.25;;;;;;;26.87;34.71;95546.66;4988374;28;20132;-84
2022/07/05 08:31:28;;;;;;;5.28;2.80;;;;;;;26.61;34.59;95555.81;5006086;28;20030;-82
2022/07/05 08:33:53;;;;;;;13.57;2.63;;;;;;;26.84;35.63;95553.53;5006188;28;20052;-83
2022/07/05 08:36:19;;;;;;;10.00;2.50;;;;;;;26.92;35.13;95549.41;5005529;28;20489;-83
2022/07/05 08:38:44;;;;;;;9.55;2.70;;;;;;;27.16;33.15;95543.31;5006548;28;20473;-84
2022/07/05 08:41:10;;;;;;;9.75;2.90;;;;;;;27.52;34.39;95534.03;5006250;28;20034;-85
2022/07/05 08:43:46;;;;;;;8.63;2.72;;;;;;;27.38;34.09;95531.09;4989153;28;20025;-84
2022/07/05 08:46:11;;;;;;;4.72;2.53;;;;;;;27.70;33.47;95527.09;5005836;28;20456;-83
2022/07/05 08:48:41;;;;;;;4.18;2.70;;;;;;;27.94;34.47;95531.88;5005607;28;20144;-84
2022/07/05 08:51:12;;;;;;;5.72;2.40;;;;;;;28.14;34.42;95528.16;5004641;28;20030;-84
2022/07/05 08:53:38;;;;;;;11.18;2.85;;;;;;;28.35;34.79;95527.19;5005165;28;20116;-84
2022/07/05 08:56:04;;;;;;;10.65;3.22;;;;;;;28.56;33.47;95529.75;4988870;28;20029;-83
2022/07/05 08:58:30;;;;;;;5.55;2.72;;;;;;;28.56;33.75;95519.56;4988347;28;20471;-84
2022/07/05 09:00:55;;;;;;;8.93;3.20;;;;;;;28.58;33.34;95524.78;5006440;28;20034;-83
2022/07/05 09:03:21;;;;;;;3.80;2.58;;;;;;;28.52;35.09;95520.44;4987893;28;20412;-84
2022/07/05 09:05:46;;;;;;;10.68;3.38;;;;;;;28.41;33.17;95515.00;4989348;28;20034;-84
2022/07/05 09:08:14;;;;;;;10.95;3.40;;;;;;;28.47;34.69;95516.59;4987994;28;20026;-84
2022/07/05 09:10:39;;;;;;;6.65;2.75;;;;;;;28.55;34.71;95506.06;5005383;28;20045;-83
2022/07/05 09:13:05;;;;;;;9.45;2.70;;;;;;;28.14;34.62;95506.13;4988259;28;20432;-84
2022/07/05 09:15:30;;;;;;;5.90;2.97;;;;;;;28.53;33.94;95500.84;5005797;28;20029;-84
2022/07/05 09:17:56;;;;;;;5.53;2.70;;;;;;;28.53;34.19;95500.84;5006316;28;20060;-83
2022/07/05 09:20:21;;;;;;;7.57;3.33;;;;;;;28.67;33.84;95495.44;4988380;28;20030;-84
2022/07/05 09:22:54;;;;;;;7.10;3.55;;;;;;;28.62;35.10;95498.25;5005175;28;20807;-84
2022/07/05 09:25:29;;;;;;;5.13;3.08;;;;;;;28.74;35.40;95493.13;5003927;28;20116;-84
2022/07/05 09:27:59;;;;;;;5.78;3.40;;;;;;;28.84;33.63;95494.16;5005500;28;20076;-84
2022/07/05 09:30:36;;;;;;;13.10;3.70;;;;;;;28.86;33.42;95491.91;5004142;28;20080;-84
2022/07/05 09:33:08;;;;;;;6.22;3.20;;;;;;;28.90;34.34;95492.97;5004406;28;20022;-85
2022/07/05 09:35:41;;;;;;;5.47;3.37;;;;;;;28.95;33.80;95483.81;5004904;28;20173;-84
2022/07/05 09:38:19;;;;;;;8.38;3.75;;;;;;;28.70;34.11;95483.81;5003866;28;20118;-85
2022/07/05 09:40:49;;;;;;;6.50;3.47;;;;;;;28.99;34.75;95482.13;5005264;28;20052;-84
2022/07/05 09:43:22;;;;;;;7.80;3.90;;;;;;;29.20;34.41;95476.34;5005437;28;20034;-84
2022/07/05 09:46:00;;;;;;;11.70;4.25;;;;;;;29.27;34.13;95478.75;5005976;28;20022;-84
2022/07/05 09:48:27;;;;;;;9.57;4.28;;;;;;;29.27;32.94;95468.53;4993495;28;20498;-86
2022/07/05 09:50:53;;;;;;;6.38;3.75;;;;;;;29.26;33.98;95468.84;4991236;28;20052;-85
2022/07/05 09:53:19;;;;;;;8.43;4.13;;;;;;;29.19;32.60;95460.91;4995016;28;20037;-85
2022/07/05 09:56:03;;;;;;;12.02;4.60;;;;;;;29.28;34.90;95458.31;4991881;28;20041;-83
2022/07/05 09:58:29;;;;;;;6.97;3.80;;;;;;;29.37;32.95;95451.81;4992665;28;20061;-84
2022/07/05 10:00:54;;;;;;;6.93;3.80;;;;;;;29.42;32.96;95455.63;5007840;28;20021;-84
2022/07/05 10:03:20;;;;;;;11.10;4.50;;;;;;;29.44;32.57;95450.66;5007980;28;20026;-85
2022/07/05 10:05:45;;;;;;;8.65;3.95;;;;;;;29.40;33.46;95455.94;4991764;28;20025;-85
2022/07/05 10:08:10;;;;;;;10.07;4.57;;;;;;;29.36;33.23;95452.94;4990975;28;20036;-83
2022/07/05 10:10:36;;;;;;;10.02;4.68;;;;;;;29.43;33.59;95452.56;5008151;28;20483;-83
2022/07/05 10:13:03;;;;;;;7.10;4.32;;;;;;;29.45;33.96;95450.34;4990716;28;20499;-84
2022/07/05 10:15:33;;;;;;;7.80;4.68;;;;;;;29.54;33.89;95441.34;5009466;28;20029;-85
2022/07/05 10:18:09;;;;;;;7.57;4.50;;;;;;;29.64;33.09;95444.00;5007194;28;20096;-84
2022/07/05 10:20:41;;;;;;;7.35;4.82;;;;;;;29.71;33.30;95433.38;4975680;28;20473;-84
2022/07/05 10:23:17;;;;;;;7.22;4.68;;;;;;;29.79;33.23;95439.38;5007661;28;20084;-85
2022/07/05 10:25:50;;;;;;;13.48;4.80;;;;;;;29.67;33.30;95432.34;5006519;28;20026;-83
2022/07/05 10:28:16;;;;;;;9.73;5.10;;;;;;;29.66;33.18;95425.19;5008130;28;20100;-84
2022/07/05 10:30:44;;;;;;;8.00;4.53;;;;;;;29.68;34.62;95427.66;5006426;28;20382;-84
2022/07/05 10:33:09;;;;;;;11.13;4.30;;;;;;;29.72;32.93;95424.00;4991769;28;20416;-84
2022/07/05 10:35:35;;;;;;;4.80;4.25;;;;;;;29.74;32.74;95416.19;4990852;28;20037;-85
2022/07/05 10:38:01;;;;;;;5.57;4.10;;;;;;;29.87;33.06;95419.34;5006501;28;20053;-84
2022/07/05 10:40:27;;;;;;;7.40;4.18;;;;;;;29.83;34.28;95419.13;4990926;28;20025;-84
2022/07/05 10:42:55;;;;;;;9.85;4.10;;;;;;;30.00;34.21;95425.19;5006061;28;20034;-83
2022/07/05 10:45:29;;;;;;;11.93;4.38;;;;;;;30.10;33.66;95412.00;5007227;28;20488;-84
2022/07/05 10:48:21;;;;;;;5.88;4.20;;;;;;;30.11;32.96;95419.16;5007144;28;20042;-84
2022/07/05 10:50:50;;;;;;;8.10;4.30;;;;;;;30.16;33.61;95409.16;5006809;28;20034;-83
2022/07/05 10:53:20;;;;;;;13.20;4.70;;;;;;;30.25;33.93;95401.84;5006790;28;20041;-83
2022/07/05 10:55:48;;;;;;;8.73;4.78;;;;;;;30.30;34.19;95414.75;5007982;28;20030;-83
2022/07/05 10:58:28;;;;;;;5.40;4.65;;;;;;;30.31;32.51;95408.09;5007290;28;20057;-84
2022/07/05 11:01:11;;;;;;;12.70;5.45;;;;;;;30.32;32.20;95406.97;4990289;28;20060;-84
2022/07/05 11:03:41;;;;;;;9.10;5.47;;;;;;;30.35;32.71;95406.34;5008147;28;20419;-84
2022/07/05 11:06:10;;;;;;;8.18;4.70;;;;;;;30.40;32.02;95405.44;5006472;28;20022;-83
2022/07/05 11:08:57;;;;;;;8.77;5.40;;;;;;;30.39;32.41;95396.31;5006326;28;20029;-84
2022/07/05 11:11:27;;;;;;;9.30;4.97;;;;;;;30.40;31.61;95397.13;5007864;28;20044;-83
2022/07/05 11:13:54;;;;;;;6.03;4.75;;;;;;;30.57;33.93;95389.03;4989936;28;20223;-84
2022/07/05 11:16:19;;;;;;;11.05;5.40;;;;;;;30.64;32.21;95383.09;4990823;28;20052;-82
2022/07/05 11:18:45;;;;;;;8.20;5.25;;;;;;;30.67;31.66;95387.19;5007577;28;20477;-83
2022/07/05 11:21:21;;;;;;;8.38;4.45;;;;;;;30.63;31.90;95378.69;4973424;28;20022;-84
2022/07/05 11:23:47;;;;;;;9.82;5.55;;;;;;;30.68;31.57;95381.34;5006646;28;20112;-84
2022/07/05 11:26:15;;;;;;;8.90;5.03;;;;;;;30.77;32.30;95375.94;4972999;28;20480;-83
2022/07/05 11:28:43;;;;;;;7.03;4.70;;;;;;;30.83;32.45;95369.19;4990830;28;20061;-83
2022/07/05 11:31:09;;;;;;;7.60;5.10;;;;;;;30.85;32.55;95371.63;4973725;28;20386;-84
2022/07/05 11:33:39;;;;;;;6.10;4.35;;;;;;;30.88;32.22;95370.19;5006352;28;20452;-85